sensor_id;sensor_type;location;lat;lon;timestamp;pressure;altitude;pressure_sealevel;temperature;humidity
78623;BME280;67943;54.412;9.502;2024-01-27T00:04:19;102557.88;;;5.51;87.12
78623;BME280;67943;54.412;9.502;2024-01-27T00:09:20;102579.88;;;5.59;87.22
78623;BME280;67943;54.412;9.502;2024-01-27T00:14:22;102572.03;;;5.59;87.61
78623;BME280;67943;54.412;9.502;2024-01-27T00:19:25;102576.88;;;5.78;87.56
78623;BME280;67943;54.412;9.502;2024-01-27T00:24:26;102573.22;;;5.70;87.70
78623;BME280;67943;54.412;9.502;2024-01-27T00:29:27;102576.81;;;5.73;87.88
78623;BME280;67943;54.412;9.502;2024-01-27T00:34:30;102576.75;;;5.72;87.26
78623;BME280;67943;54.412;9.502;2024-01-27T00:39:32;102587.44;;;5.81;87.48
78623;BME280;67943;54.412;9.502;2024-01-27T00:44:33;102592.28;;;5.67;88.19
78623;BME280;67943;54.412;9.502;2024-01-27T00:49:36;102602.22;;;5.81;88.37
78623;BME280;67943;54.412;9.502;2024-01-27T00:54:38;102600.44;;;5.80;88.13
78623;BME280;67943;54.412;9.502;2024-01-27T00:59:39;102616.94;;;5.77;88.40
78623;BME280;67943;54.412;9.502;2024-01-27T01:04:42;102614.38;;;5.80;88.37
78623;BME280;67943;54.412;9.502;2024-01-27T01:09:45;102631.00;;;5.82;88.48
78623;BME280;67943;54.412;9.502;2024-01-27T01:14:47;102625.94;;;5.88;88.35
78623;BME280;67943;54.412;9.502;2024-01-27T01:19:50;102621.38;;;5.81;88.58
78623;BME280;67943;54.412;9.502;2024-01-27T01:24:51;102621.38;;;5.81;88.87
78623;BME280;67943;54.412;9.502;2024-01-27T01:29:53;102623.94;;;5.80;89.00
78623;BME280;67943;54.412;9.502;2024-01-27T01:34:55;102629.88;;;5.72;90.05
78623;BME280;67943;54.412;9.502;2024-01-27T01:39:57;102627.03;;;5.65;90.69
78623;BME280;67943;54.412;9.502;2024-01-27T01:44:59;102633.03;;;5.61;91.13
78623;BME280;67943;54.412;9.502;2024-01-27T01:50:03;102634.78;;;5.62;91.08
78623;BME280;67943;54.412;9.502;2024-01-27T01:55:05;102638.91;;;5.54;90.79
78623;BME280;67943;54.412;9.502;2024-01-27T02:00:07;102625.94;;;5.57;91.13
78623;BME280;67943;54.412;9.502;2024-01-27T02:05:10;102645.00;;;5.54;91.39
78623;BME280;67943;54.412;9.502;2024-01-27T02:10:13;102640.84;;;5.61;91.82
78623;BME280;67943;54.412;9.502;2024-01-27T02:15:15;102652.19;;;5.61;91.62
78623;BME280;67943;54.412;9.502;2024-01-27T02:20:18;102649.72;;;5.66;92.07
78623;BME280;67943;54.412;9.502;2024-01-27T02:25:21;102653.44;;;5.74;91.87
78623;BME280;67943;54.412;9.502;2024-01-27T02:30:23;102652.66;;;5.78;92.14
78623;BME280;67943;54.412;9.502;2024-01-27T02:35:24;102651.09;;;5.85;92.02
78623;BME280;67943;54.412;9.502;2024-01-27T02:40:27;102659.19;;;5.92;91.61
78623;BME280;67943;54.412;9.502;2024-01-27T02:45:28;102662.38;;;5.84;92.00
78623;BME280;67943;54.412;9.502;2024-01-27T02:50:30;102669.41;;;5.86;91.13
78623;BME280;67943;54.412;9.502;2024-01-27T02:55:33;102669.25;;;5.80;91.31
78623;BME280;67943;54.412;9.502;2024-01-27T03:00:34;102665.50;;;5.70;91.80
78623;BME280;67943;54.412;9.502;2024-01-27T03:05:36;102668.84;;;5.65;91.77
78623;BME280;67943;54.412;9.502;2024-01-27T03:10:39;102667.81;;;5.60;91.37
78623;BME280;67943;54.412;9.502;2024-01-27T03:15:40;102668.75;;;5.62;91.93
78623;BME280;67943;54.412;9.502;2024-01-27T03:20:43;102670.25;;;5.54;91.70
78623;BME280;67943;54.412;9.502;2024-01-27T03:25:46;102670.09;;;5.48;91.35
78623;BME280;67943;54.412;9.502;2024-01-27T03:30:47;102682.25;;;5.47;91.36
78623;BME280;67943;54.412;9.502;2024-01-27T03:35:49;102686.41;;;5.40;91.69
78623;BME280;67943;54.412;9.502;2024-01-27T03:40:52;102692.59;;;5.44;92.40
78623;BME280;67943;54.412;9.502;2024-01-27T03:45:53;102704.78;;;5.43;92.81
78623;BME280;67943;54.412;9.502;2024-01-27T03:50:55;102706.53;;;5.45;93.12
78623;BME280;67943;54.412;9.502;2024-01-27T03:55:58;102703.00;;;5.42;92.99
78623;BME280;67943;54.412;9.502;2024-01-27T04:01:00;102721.53;;;5.52;92.51
78623;BME280;67943;54.412;9.502;2024-01-27T04:06:02;102730.16;;;5.49;93.05
78623;BME280;67943;54.412;9.502;2024-01-27T04:11:05;102737.78;;;5.41;93.11
78623;BME280;67943;54.412;9.502;2024-01-27T04:16:06;102742.06;;;5.39;93.02
78623;BME280;67943;54.412;9.502;2024-01-27T04:21:08;102743.75;;;5.37;92.49
78623;BME280;67943;54.412;9.502;2024-01-27T04:26:11;102734.72;;;5.28;92.62
78623;BME280;67943;54.412;9.502;2024-01-27T04:31:12;102737.91;;;5.18;93.76
78623;BME280;67943;54.412;9.502;2024-01-27T04:36:14;102738.31;;;5.03;94.46
78623;BME280;67943;54.412;9.502;2024-01-27T04:41:17;102741.84;;;5.05;93.94
78623;BME280;67943;54.412;9.502;2024-01-27T04:46:18;102747.78;;;5.01;94.71
78623;BME280;67943;54.412;9.502;2024-01-27T04:51:20;102747.25;;;4.84;95.55
78623;BME280;67943;54.412;9.502;2024-01-27T04:56:23;102760.34;;;4.86;95.49
78623;BME280;67943;54.412;9.502;2024-01-27T05:01:25;102768.34;;;4.90;95.32
78623;BME280;67943;54.412;9.502;2024-01-27T05:06:26;102791.59;;;4.84;95.07
78623;BME280;67943;54.412;9.502;2024-01-27T05:11:30;102784.81;;;4.89;94.75
78623;BME280;67943;54.412;9.502;2024-01-27T05:16:32;102776.78;;;4.83;95.18
78623;BME280;67943;54.412;9.502;2024-01-27T05:21:34;102767.88;;;4.77;96.45
78623;BME280;67943;54.412;9.502;2024-01-27T05:26:37;102770.47;;;4.77;96.69
78623;BME280;67943;54.412;9.502;2024-01-27T05:31:39;102778.47;;;4.81;96.52
78623;BME280;67943;54.412;9.502;2024-01-27T05:36:43;102772.91;;;4.72;97.01
78623;BME280;67943;54.412;9.502;2024-01-27T05:41:46;102778.81;;;4.66;97.68
78623;BME280;67943;54.412;9.502;2024-01-27T05:46:47;102791.66;;;4.60;97.37
78623;BME280;67943;54.412;9.502;2024-01-27T05:51:49;102804.47;;;4.54;96.72
78623;BME280;67943;54.412;9.502;2024-01-27T05:56:52;102807.69;;;4.47;97.16
78623;BME280;67943;54.412;9.502;2024-01-27T06:01:54;102808.75;;;4.52;96.88
78623;BME280;67943;54.412;9.502;2024-01-27T06:06:55;102815.28;;;4.41;97.64
78623;BME280;67943;54.412;9.502;2024-01-27T06:11:59;102819.56;;;4.39;97.57
78623;BME280;67943;54.412;9.502;2024-01-27T06:17:03;102836.97;;;4.40;97.28
78623;BME280;67943;54.412;9.502;2024-01-27T06:22:05;102832.94;;;4.48;97.38
78623;BME280;67943;54.412;9.502;2024-01-27T06:27:08;102837.69;;;4.36;97.56
78623;BME280;67943;54.412;9.502;2024-01-27T06:32:09;102848.50;;;4.23;98.37
78623;BME280;67943;54.412;9.502;2024-01-27T06:37:11;102846.63;;;4.19;98.39
78623;BME280;67943;54.412;9.502;2024-01-27T06:42:14;102851.81;;;4.19;98.42
78623;BME280;67943;54.412;9.502;2024-01-27T06:47:15;102866.41;;;4.14;98.48
78623;BME280;67943;54.412;9.502;2024-01-27T06:52:17;102869.13;;;4.17;98.65
78623;BME280;67943;54.412;9.502;2024-01-27T06:57:20;102871.97;;;4.23;97.81
78623;BME280;67943;54.412;9.502;2024-01-27T07:02:22;102864.09;;;4.21;97.52
78623;BME280;67943;54.412;9.502;2024-01-27T07:07:26;102876.22;;;4.21;97.92
78623;BME280;67943;54.412;9.502;2024-01-27T07:12:29;102871.91;;;4.21;98.94
78623;BME280;67943;54.412;9.502;2024-01-27T07:17:30;102879.97;;;4.27;98.77
78623;BME280;67943;54.412;9.502;2024-01-27T07:22:32;102894.22;;;4.15;100.00
78623;BME280;67943;54.412;9.502;2024-01-27T07:27:35;102893.03;;;4.29;100.00
78623;BME280;67943;54.412;9.502;2024-01-27T07:32:37;102897.56;;;4.33;100.00
78623;BME280;67943;54.412;9.502;2024-01-27T07:37:38;102904.47;;;4.32;100.00
78623;BME280;67943;54.412;9.502;2024-01-27T07:42:41;102895.78;;;4.32;100.00
78623;BME280;67943;54.412;9.502;2024-01-27T07:47:43;102917.06;;;4.44;100.00
78623;BME280;67943;54.412;9.502;2024-01-27T07:52:45;102911.84;;;4.44;100.00
78623;BME280;67943;54.412;9.502;2024-01-27T07:57:48;102925.13;;;4.50;100.00
78623;BME280;67943;54.412;9.502;2024-01-27T08:02:49;102925.13;;;4.50;100.00
78623;BME280;67943;54.412;9.502;2024-01-27T08:07:51;102937.56;;;4.57;100.00
78623;BME280;67943;54.412;9.502;2024-01-27T08:12:54;102945.69;;;4.66;100.00
78623;BME280;67943;54.412;9.502;2024-01-27T08:17:55;102938.88;;;4.70;100.00
78623;BME280;67943;54.412;9.502;2024-01-27T08:22:57;102939.69;;;4.93;100.00
78623;BME280;67943;54.412;9.502;2024-01-27T08:28:00;102952.81;;;4.94;100.00
78623;BME280;67943;54.412;9.502;2024-01-27T08:33:01;102945.47;;;5.08;100.00
78623;BME280;67943;54.412;9.502;2024-01-27T08:38:03;102929.75;;;5.06;100.00
78623;BME280;67943;54.412;9.502;2024-01-27T08:43:07;102942.56;;;5.24;100.00
78623;BME280;67943;54.412;9.502;2024-01-27T08:48:10;102944.50;;;5.30;100.00
78623;BME280;67943;54.412;9.502;2024-01-27T08:53:12;102956.34;;;5.46;99.50
78623;BME280;67943;54.412;9.502;2024-01-27T08:58:15;102959.25;;;5.55;99.23
78623;BME280;67943;54.412;9.502;2024-01-27T09:03:17;102966.03;;;5.48;99.67
78623;BME280;67943;54.412;9.502;2024-01-27T09:08:20;102972.63;;;5.64;99.43
78623;BME280;67943;54.412;9.502;2024-01-27T09:13:23;102980.69;;;5.70;98.51
78623;BME280;67943;54.412;9.502;2024-01-27T09:18:25;102980.22;;;5.83;98.39
78623;BME280;67943;54.412;9.502;2024-01-27T09:23:26;102975.28;;;6.18;95.99
78623;BME280;67943;54.412;9.502;2024-01-27T09:28:29;102980.00;;;6.29;95.42
78623;BME280;67943;54.412;9.502;2024-01-27T09:33:31;102983.31;;;6.52;95.11
78623;BME280;67943;54.412;9.502;2024-01-27T09:38:34;102968.41;;;6.80;92.99
78623;BME280;67943;54.412;9.502;2024-01-27T09:43:42;102979.31;;;6.95;91.91
78623;BME280;67943;54.412;9.502;2024-01-27T09:48:44;102986.00;;;6.84;92.03
78623;BME280;67943;54.412;9.502;2024-01-27T09:53:46;102993.41;;;7.00;91.51
78623;BME280;67943;54.412;9.502;2024-01-27T09:58:50;103002.09;;;6.99;90.99
78623;BME280;67943;54.412;9.502;2024-01-27T10:03:55;102998.31;;;6.88;91.55
78623;BME280;67943;54.412;9.502;2024-01-27T10:08:58;102998.13;;;6.82;92.35
78623;BME280;67943;54.412;9.502;2024-01-27T10:14:01;102990.56;;;6.91;92.33
78623;BME280;67943;54.412;9.502;2024-01-27T10:19:03;102987.84;;;6.88;92.13
78623;BME280;67943;54.412;9.502;2024-01-27T10:24:05;102995.38;;;7.07;90.77
78623;BME280;67943;54.412;9.502;2024-01-27T10:29:09;102982.28;;;7.07;90.54
78623;BME280;67943;54.412;9.502;2024-01-27T10:34:11;102997.22;;;7.11;91.12
78623;BME280;67943;54.412;9.502;2024-01-27T10:39:20;102998.66;;;7.31;90.75
78623;BME280;67943;54.412;9.502;2024-01-27T10:44:23;102993.19;;;7.24;90.79
78623;BME280;67943;54.412;9.502;2024-01-27T10:49:26;102984.91;;;7.73;89.49
78623;BME280;67943;54.412;9.502;2024-01-27T10:54:30;102989.63;;;7.88;87.45
78623;BME280;67943;54.412;9.502;2024-01-27T10:59:37;102999.88;;;8.14;85.97
78623;BME280;67943;54.412;9.502;2024-01-27T11:04:41;103014.59;;;8.44;84.59
78623;BME280;67943;54.412;9.502;2024-01-27T11:09:44;103012.38;;;8.25;84.98
78623;BME280;67943;54.412;9.502;2024-01-27T11:14:47;103000.34;;;8.33;84.90
78623;BME280;67943;54.412;9.502;2024-01-27T11:19:49;103009.19;;;9.19;80.80
78623;BME280;67943;54.412;9.502;2024-01-27T11:24:52;103019.75;;;9.22;79.41
78623;BME280;67943;54.412;9.502;2024-01-27T11:29:54;103031.53;;;8.99;80.69
78623;BME280;67943;54.412;9.502;2024-01-27T11:34:56;103040.69;;;9.18;79.30
78623;BME280;67943;54.412;9.502;2024-01-27T11:40:03;103035.72;;;8.89;79.67
78623;BME280;67943;54.412;9.502;2024-01-27T11:45:07;103053.84;;;8.78;79.81
78623;BME280;67943;54.412;9.502;2024-01-27T11:50:09;103038.00;;;8.74;80.85
78623;BME280;67943;54.412;9.502;2024-01-27T11:55:10;103041.56;;;8.38;82.72
78623;BME280;67943;54.412;9.502;2024-01-27T12:00:14;103051.94;;;8.32;83.83
78623;BME280;67943;54.412;9.502;2024-01-27T12:05:15;103055.34;;;8.66;83.39
78623;BME280;67943;54.412;9.502;2024-01-27T12:10:17;103052.47;;;8.55;82.95
78623;BME280;67943;54.412;9.502;2024-01-27T12:15:21;103061.03;;;8.13;84.76
78623;BME280;67943;54.412;9.502;2024-01-27T12:20:23;103072.94;;;7.99;85.61
78623;BME280;67943;54.412;9.502;2024-01-27T12:25:24;103062.13;;;7.87;86.11
78623;BME280;67943;54.412;9.502;2024-01-27T12:30:27;103066.00;;;7.35;88.93
78623;BME280;67943;54.412;9.502;2024-01-27T12:35:29;103051.81;;;7.29;90.09
78623;BME280;67943;54.412;9.502;2024-01-27T12:40:31;103053.47;;;6.95;91.49
78623;BME280;67943;54.412;9.502;2024-01-27T12:45:34;103056.09;;;7.25;90.80
78623;BME280;67943;54.412;9.502;2024-01-27T12:50:36;103061.25;;;7.22;91.04
78623;BME280;67943;54.412;9.502;2024-01-27T12:55:37;103077.19;;;7.00;91.80
78623;BME280;67943;54.412;9.502;2024-01-27T13:00:41;103088.63;;;7.33;90.12
78623;BME280;67943;54.412;9.502;2024-01-27T13:05:42;103076.19;;;7.26;89.72
78623;BME280;67943;54.412;9.502;2024-01-27T13:10:44;103088.91;;;7.42;88.66
78623;BME280;67943;54.412;9.502;2024-01-27T13:15:47;103099.56;;;7.19;90.04
78623;BME280;67943;54.412;9.502;2024-01-27T13:20:49;103091.75;;;6.90;91.86
78623;BME280;67943;54.412;9.502;2024-01-27T13:25:50;103087.38;;;7.19;91.19
78623;BME280;67943;54.412;9.502;2024-01-27T13:30:53;103078.63;;;7.19;90.23
78623;BME280;67943;54.412;9.502;2024-01-27T13:35:54;103082.88;;;6.85;91.09
78623;BME280;67943;54.412;9.502;2024-01-27T13:40:56;103063.94;;;6.95;91.55
78623;BME280;67943;54.412;9.502;2024-01-27T13:45:59;103066.06;;;6.78;91.98
78623;BME280;67943;54.412;9.502;2024-01-27T13:51:00;103073.00;;;6.76;92.55
78623;BME280;67943;54.412;9.502;2024-01-27T13:56:02;103077.38;;;6.77;92.66
78623;BME280;67943;54.412;9.502;2024-01-27T14:01:06;103075.91;;;6.86;92.21
78623;BME280;67943;54.412;9.502;2024-01-27T14:06:08;103071.75;;;6.94;92.03
78623;BME280;67943;54.412;9.502;2024-01-27T14:11:12;103085.22;;;7.06;91.35
78623;BME280;67943;54.412;9.502;2024-01-27T14:16:16;103089.06;;;7.49;89.13
78623;BME280;67943;54.412;9.502;2024-01-27T14:21:17;103085.47;;;7.76;85.69
78623;BME280;67943;54.412;9.502;2024-01-27T14:26:19;103084.25;;;7.64;86.30
78623;BME280;67943;54.412;9.502;2024-01-27T14:31:22;103076.81;;;7.48;87.60
78623;BME280;67943;54.412;9.502;2024-01-27T14:36:23;103079.41;;;7.79;85.37
78623;BME280;67943;54.412;9.502;2024-01-27T14:41:26;103068.06;;;7.47;86.34
78623;BME280;67943;54.412;9.502;2024-01-27T14:46:29;103083.31;;;7.30;87.69
78623;BME280;67943;54.412;9.502;2024-01-27T14:51:30;103095.88;;;7.12;88.91
78623;BME280;67943;54.412;9.502;2024-01-27T14:56:32;103077.00;;;6.94;90.20
78623;BME280;67943;54.412;9.502;2024-01-27T15:01:35;103084.00;;;6.95;90.08
78623;BME280;67943;54.412;9.502;2024-01-27T15:06:36;103094.03;;;6.80;91.08
78623;BME280;67943;54.412;9.502;2024-01-27T15:11:38;103101.13;;;6.55;91.45
78623;BME280;67943;54.412;9.502;2024-01-27T15:16:41;103103.63;;;6.52;92.21
78623;BME280;67943;54.412;9.502;2024-01-27T15:21:42;103107.78;;;6.46;93.00
78623;BME280;67943;54.412;9.502;2024-01-27T15:26:44;103106.66;;;6.66;92.45
78623;BME280;67943;54.412;9.502;2024-01-27T15:31:47;103112.41;;;6.54;92.38
78623;BME280;67943;54.412;9.502;2024-01-27T15:36:49;103111.53;;;6.54;93.01
78623;BME280;67943;54.412;9.502;2024-01-27T15:41:50;103119.31;;;6.52;92.87
78623;BME280;67943;54.412;9.502;2024-01-27T15:46:53;103119.97;;;6.45;93.51
78623;BME280;67943;54.412;9.502;2024-01-27T15:51:56;103133.66;;;6.38;93.86
78623;BME280;67943;54.412;9.502;2024-01-27T15:56:58;103125.75;;;6.35;94.36
78623;BME280;67943;54.412;9.502;2024-01-27T16:02:01;103129.19;;;6.34;94.76
78623;BME280;67943;54.412;9.502;2024-01-27T16:07:02;103120.47;;;6.33;95.14
78623;BME280;67943;54.412;9.502;2024-01-27T16:12:04;103120.53;;;6.35;94.74
78623;BME280;67943;54.412;9.502;2024-01-27T16:17:07;103124.59;;;6.27;95.58
78623;BME280;67943;54.412;9.502;2024-01-27T16:22:09;103133.53;;;6.33;95.29
78623;BME280;67943;54.412;9.502;2024-01-27T16:27:10;103132.44;;;6.27;96.04
78623;BME280;67943;54.412;9.502;2024-01-27T16:32:13;103130.00;;;6.06;96.88
78623;BME280;67943;54.412;9.502;2024-01-27T16:37:17;103149.81;;;6.25;97.56
78623;BME280;67943;54.412;9.502;2024-01-27T16:42:20;103148.88;;;6.23;97.25
78623;BME280;67943;54.412;9.502;2024-01-27T16:47:22;103143.00;;;6.30;97.29
78623;BME280;67943;54.412;9.502;2024-01-27T16:52:24;103165.81;;;6.34;97.30
78623;BME280;67943;54.412;9.502;2024-01-27T16:57:25;103158.44;;;6.22;97.71
78623;BME280;67943;54.412;9.502;2024-01-27T17:02:29;103161.78;;;6.18;97.74
78623;BME280;67943;54.412;9.502;2024-01-27T17:07:31;103142.38;;;6.12;98.09
78623;BME280;67943;54.412;9.502;2024-01-27T17:12:33;103145.63;;;6.30;97.10
78623;BME280;67943;54.412;9.502;2024-01-27T17:17:37;103138.06;;;6.39;96.54
78623;BME280;67943;54.412;9.502;2024-01-27T17:22:39;103146.19;;;6.21;96.51
78623;BME280;67943;54.412;9.502;2024-01-27T17:27:42;103133.78;;;6.16;97.21
78623;BME280;67943;54.412;9.502;2024-01-27T17:32:45;103145.81;;;6.10;97.11
78623;BME280;67943;54.412;9.502;2024-01-27T17:37:46;103153.31;;;6.00;97.52
78623;BME280;67943;54.412;9.502;2024-01-27T17:42:48;103153.19;;;5.97;97.19
78623;BME280;67943;54.412;9.502;2024-01-27T17:47:51;103142.19;;;6.05;96.38
78623;BME280;67943;54.412;9.502;2024-01-27T17:52:55;103145.09;;;5.89;97.19
78623;BME280;67943;54.412;9.502;2024-01-27T17:57:56;103149.00;;;5.78;96.49
78623;BME280;67943;54.412;9.502;2024-01-27T18:02:59;103155.22;;;5.82;96.96
78623;BME280;67943;54.412;9.502;2024-01-27T18:08:02;103162.81;;;5.74;96.76
78623;BME280;67943;54.412;9.502;2024-01-27T18:13:04;103177.47;;;5.70;96.43
78623;BME280;67943;54.412;9.502;2024-01-27T18:18:07;103175.78;;;5.49;96.71
78623;BME280;67943;54.412;9.502;2024-01-27T18:23:08;103180.09;;;5.47;97.40
78623;BME280;67943;54.412;9.502;2024-01-27T18:28:10;103189.78;;;5.51;96.65
78623;BME280;67943;54.412;9.502;2024-01-27T18:33:13;103196.16;;;5.35;96.83
78623;BME280;67943;54.412;9.502;2024-01-27T18:38:15;103190.66;;;5.27;96.91
78623;BME280;67943;54.412;9.502;2024-01-27T18:43:16;103196.69;;;5.26;96.44
78623;BME280;67943;54.412;9.502;2024-01-27T18:48:19;103200.25;;;5.28;96.23
78623;BME280;67943;54.412;9.502;2024-01-27T18:53:22;103211.91;;;5.14;97.05
78623;BME280;67943;54.412;9.502;2024-01-27T18:58:23;103212.19;;;5.22;96.11
78623;BME280;67943;54.412;9.502;2024-01-27T19:03:26;103212.78;;;5.15;95.62
78623;BME280;67943;54.412;9.502;2024-01-27T19:08:27;103205.16;;;4.98;95.60
78623;BME280;67943;54.412;9.502;2024-01-27T19:13:29;103206.69;;;4.93;95.63
78623;BME280;67943;54.412;9.502;2024-01-27T19:18:32;103211.84;;;4.92;96.25
78623;BME280;67943;54.412;9.502;2024-01-27T19:23:33;103212.16;;;4.99;96.04
78623;BME280;67943;54.412;9.502;2024-01-27T19:28:35;103219.94;;;4.98;95.90
78623;BME280;67943;54.412;9.502;2024-01-27T19:33:38;103216.50;;;4.99;96.05
78623;BME280;67943;54.412;9.502;2024-01-27T19:38:40;103218.03;;;4.94;96.58
78623;BME280;67943;54.412;9.502;2024-01-27T19:43:42;103219.81;;;4.95;96.67
78623;BME280;67943;54.412;9.502;2024-01-27T19:48:47;103227.41;;;4.89;97.11
78623;BME280;67943;54.412;9.502;2024-01-27T19:53:49;103233.94;;;5.00;96.89
78623;BME280;67943;54.412;9.502;2024-01-27T19:58:50;103223.16;;;4.91;96.62
78623;BME280;67943;54.412;9.502;2024-01-27T20:03:53;103227.75;;;4.98;96.38
78623;BME280;67943;54.412;9.502;2024-01-27T20:08:55;103223.16;;;4.91;97.08
78623;BME280;67943;54.412;9.502;2024-01-27T20:13:56;103223.53;;;4.79;97.18
78623;BME280;67943;54.412;9.502;2024-01-27T20:18:59;103220.41;;;4.88;96.87
78623;BME280;67943;54.412;9.502;2024-01-27T20:24:01;103207.94;;;4.81;97.32
78623;BME280;67943;54.412;9.502;2024-01-27T20:29:02;103214.75;;;4.77;97.69
78623;BME280;67943;54.412;9.502;2024-01-27T20:34:05;103214.38;;;4.89;97.43
78623;BME280;67943;54.412;9.502;2024-01-27T20:39:06;103198.81;;;4.92;97.36
78623;BME280;67943;54.412;9.502;2024-01-27T20:44:09;103209.38;;;4.95;97.15
78623;BME280;67943;54.412;9.502;2024-01-27T20:49:12;103199.00;;;4.96;96.95
78623;BME280;67943;54.412;9.502;2024-01-27T20:54:14;103196.16;;;4.90;96.39
78623;BME280;67943;54.412;9.502;2024-01-27T20:59:16;103190.75;;;4.86;96.56
78623;BME280;67943;54.412;9.502;2024-01-27T21:04:19;103195.03;;;4.84;96.71
78623;BME280;67943;54.412;9.502;2024-01-27T21:09:25;103198.81;;;4.92;97.17
78623;BME280;67943;54.412;9.502;2024-01-27T21:14:26;103194.44;;;4.91;96.62
78623;BME280;67943;54.412;9.502;2024-01-27T21:19:31;103186.78;;;4.95;96.94
78623;BME280;67943;54.412;9.502;2024-01-27T21:24:37;103196.16;;;4.90;96.55
78623;BME280;67943;54.412;9.502;2024-01-27T21:29:38;103195.97;;;4.86;96.79
78623;BME280;67943;54.412;9.502;2024-01-27T21:34:41;103196.31;;;4.95;96.40
78623;BME280;67943;54.412;9.502;2024-01-27T21:39:43;103209.22;;;4.90;95.74
78623;BME280;67943;54.412;9.502;2024-01-27T21:44:44;103208.91;;;4.83;95.56
78623;BME280;67943;54.412;9.502;2024-01-27T21:49:47;103206.22;;;4.81;94.48
78623;BME280;67943;54.412;9.502;2024-01-27T21:54:48;103201.53;;;4.72;92.74
78623;BME280;67943;54.412;9.502;2024-01-27T21:59:50;103197.66;;;4.42;93.85
78623;BME280;67943;54.412;9.502;2024-01-27T22:04:53;103198.72;;;4.26;93.77
78623;BME280;67943;54.412;9.502;2024-01-27T22:09:54;103207.03;;;4.18;94.30
78623;BME280;67943;54.412;9.502;2024-01-27T22:14:57;103206.25;;;3.99;94.40
78623;BME280;67943;54.412;9.502;2024-01-27T22:19:59;103217.75;;;3.85;95.34
78623;BME280;67943;54.412;9.502;2024-01-27T22:25:01;103206.53;;;3.86;94.86
78623;BME280;67943;54.412;9.502;2024-01-27T22:30:03;103223.78;;;3.84;95.36
78623;BME280;67943;54.412;9.502;2024-01-27T22:35:07;103232.34;;;3.82;95.83
78623;BME280;67943;54.412;9.502;2024-01-27T22:40:10;103232.03;;;3.74;94.98
78623;BME280;67943;54.412;9.502;2024-01-27T22:45:12;103233.94;;;3.59;96.47
78623;BME280;67943;54.412;9.502;2024-01-27T22:50:15;103236.81;;;3.65;96.15
78623;BME280;67943;54.412;9.502;2024-01-27T22:55:16;103234.19;;;3.46;97.24
78623;BME280;67943;54.412;9.502;2024-01-27T23:00:18;103249.03;;;3.48;97.51
78623;BME280;67943;54.412;9.502;2024-01-27T23:05:25;103247.25;;;3.47;97.38
78623;BME280;67943;54.412;9.502;2024-01-27T23:10:27;103251.47;;;3.44;97.27
78623;BME280;67943;54.412;9.502;2024-01-27T23:15:31;103255.69;;;3.42;97.69
78623;BME280;67943;54.412;9.502;2024-01-27T23:20:35;103250.34;;;3.38;97.87
78623;BME280;67943;54.412;9.502;2024-01-27T23:25:37;103255.84;;;3.45;97.97
78623;BME280;67943;54.412;9.502;2024-01-27T23:30:40;103261.53;;;3.55;97.35
78623;BME280;67943;54.412;9.502;2024-01-27T23:35:43;103254.13;;;3.45;97.04
78623;BME280;67943;54.412;9.502;2024-01-27T23:40:45;103260.69;;;3.37;97.33
78623;BME280;67943;54.412;9.502;2024-01-27T23:45:46;103257.88;;;3.52;96.79
78623;BME280;67943;54.412;9.502;2024-01-27T23:50:50;103252.94;;;3.38;96.66
78623;BME280;67943;54.412;9.502;2024-01-27T23:55:53;103256.09;;;3.51;95.68
